Aviation Digital Data Service (ADDS)

Output produced by METARs form (0156 UTC 08 February 2016)
found at http://aviationweather.gov/adds/metars/
 
KGSO 080144Z 0802/0824 VRB04KT P6SM SCT200 BKN250 
     FM081400 16005KT P6SM OVC100 
     FM081800 20010G20KT P6SM VCSH SCT020 BKN040